sensor_id;sensor_type;location;lat;lon;timestamp;temperature;humidity
13521;DHT22;6832;51.186;3.236;2023-04-15T00:02:14;17.20;56.20
13521;DHT22;6832;51.186;3.236;2023-04-15T00:04:51;17.20;56.20
13521;DHT22;6832;51.186;3.236;2023-04-15T00:07:18;17.20;56.30
13521;DHT22;6832;51.186;3.236;2023-04-15T00:09:57;17.20;56.30
13521;DHT22;6832;51.186;3.236;2023-04-15T00:12:24;17.20;56.30
13521;DHT22;6832;51.186;3.236;2023-04-15T00:14:51;17.20;56.30
13521;DHT22;6832;51.186;3.236;2023-04-15T00:17:33;17.20;56.30
13521;DHT22;6832;51.186;3.236;2023-04-15T00:20:03;17.20;56.30
13521;DHT22;6832;51.186;3.236;2023-04-15T00:22:34;17.20;56.30
13521;DHT22;6832;51.186;3.236;2023-04-15T00:25:19;17.20;56.30
13521;DHT22;6832;51.186;3.236;2023-04-15T00:27:49;17.20;56.30
13521;DHT22;6832;51.186;3.236;2023-04-15T00:30:23;17.20;56.30
13521;DHT22;6832;51.186;3.236;2023-04-15T00:32:51;17.10;56.20
13521;DHT22;6832;51.186;3.236;2023-04-15T00:35:19;17.20;56.30
13521;DHT22;6832;51.186;3.236;2023-04-15T00:37:46;17.20;56.30
13521;DHT22;6832;51.186;3.236;2023-04-15T00:40:30;17.10;56.20
13521;DHT22;6832;51.186;3.236;2023-04-15T00:42:57;17.10;56.20
13521;DHT22;6832;51.186;3.236;2023-04-15T00:45:25;17.20;56.30
13521;DHT22;6832;51.186;3.236;2023-04-15T00:47:53;17.10;56.20
13521;DHT22;6832;51.186;3.236;2023-04-15T00:50:20;17.10;56.20
13521;DHT22;6832;51.186;3.236;2023-04-15T00:52:47;17.10;56.20
13521;DHT22;6832;51.186;3.236;2023-04-15T00:55:15;17.00;56.10
13521;DHT22;6832;51.186;3.236;2023-04-15T00:57:44;17.10;56.20
13521;DHT22;6832;51.186;3.236;2023-04-15T01:00:12;17.10;56.20
13521;DHT22;6832;51.186;3.236;2023-04-15T01:02:46;17.00;56.10
13521;DHT22;6832;51.186;3.236;2023-04-15T01:05:16;17.00;56.10
13521;DHT22;6832;51.186;3.236;2023-04-15T01:07:47;17.00;56.10
13521;DHT22;6832;51.186;3.236;2023-04-15T01:10:24;17.00;56.10
13521;DHT22;6832;51.186;3.236;2023-04-15T01:13:11;17.00;56.10
13521;DHT22;6832;51.186;3.236;2023-04-15T01:15:56;17.00;56.10
13521;DHT22;6832;51.186;3.236;2023-04-15T01:18:24;17.00;56.10
13521;DHT22;6832;51.186;3.236;2023-04-15T01:20:53;17.00;56.10
13521;DHT22;6832;51.186;3.236;2023-04-15T01:23:20;17.00;56.10
13521;DHT22;6832;51.186;3.236;2023-04-15T01:25:53;17.00;56.10
13521;DHT22;6832;51.186;3.236;2023-04-15T01:28:27;17.00;56.10
13521;DHT22;6832;51.186;3.236;2023-04-15T01:31:07;17.00;56.20
13521;DHT22;6832;51.186;3.236;2023-04-15T01:33:38;17.00;56.10
13521;DHT22;6832;51.186;3.236;2023-04-15T01:36:08;17.00;56.10
13521;DHT22;6832;51.186;3.236;2023-04-15T01:38:40;17.00;56.10
13521;DHT22;6832;51.186;3.236;2023-04-15T01:41:15;16.90;56.10
13521;DHT22;6832;51.186;3.236;2023-04-15T01:43:47;16.90;56.70
13521;DHT22;6832;51.186;3.236;2023-04-15T01:46:19;16.90;56.00
13521;DHT22;6832;51.186;3.236;2023-04-15T01:48:46;17.00;56.10
13521;DHT22;6832;51.186;3.236;2023-04-15T01:51:14;16.90;56.00
13521;DHT22;6832;51.186;3.236;2023-04-15T01:53:43;16.90;56.10
13521;DHT22;6832;51.186;3.236;2023-04-15T01:56:10;16.90;56.10
13521;DHT22;6832;51.186;3.236;2023-04-15T01:58:42;16.90;56.10
13521;DHT22;6832;51.186;3.236;2023-04-15T02:01:08;16.90;56.10
13521;DHT22;6832;51.186;3.236;2023-04-15T02:03:39;16.90;56.10
13521;DHT22;6832;51.186;3.236;2023-04-15T02:06:14;16.90;56.10
13521;DHT22;6832;51.186;3.236;2023-04-15T02:08:44;16.90;56.10
13521;DHT22;6832;51.186;3.236;2023-04-15T02:11:15;16.80;56.00
13521;DHT22;6832;51.186;3.236;2023-04-15T02:13:46;16.80;56.00
13521;DHT22;6832;51.186;3.236;2023-04-15T02:16:17;16.80;56.00
13521;DHT22;6832;51.186;3.236;2023-04-15T02:18:44;16.80;56.00
13521;DHT22;6832;51.186;3.236;2023-04-15T02:21:12;16.80;56.10
13521;DHT22;6832;51.186;3.236;2023-04-15T02:23:46;16.80;56.10
13521;DHT22;6832;51.186;3.236;2023-04-15T02:26:18;16.80;56.00
13521;DHT22;6832;51.186;3.236;2023-04-15T02:29:01;16.80;56.10
13521;DHT22;6832;51.186;3.236;2023-04-15T02:31:29;16.80;56.10
13521;DHT22;6832;51.186;3.236;2023-04-15T02:34:01;16.70;56.00
13521;DHT22;6832;51.186;3.236;2023-04-15T02:36:29;16.80;56.10
13521;DHT22;6832;51.186;3.236;2023-04-15T02:39:04;16.80;56.10
13521;DHT22;6832;51.186;3.236;2023-04-15T02:41:31;16.80;56.10
13521;DHT22;6832;51.186;3.236;2023-04-15T02:44:00;16.70;56.00
13521;DHT22;6832;51.186;3.236;2023-04-15T02:46:27;16.70;56.00
13521;DHT22;6832;51.186;3.236;2023-04-15T02:48:55;16.70;56.00
13521;DHT22;6832;51.186;3.236;2023-04-15T02:51:29;16.70;56.00
13521;DHT22;6832;51.186;3.236;2023-04-15T02:53:56;16.70;56.00
13521;DHT22;6832;51.186;3.236;2023-04-15T02:56:23;16.70;56.00
13521;DHT22;6832;51.186;3.236;2023-04-15T02:58:50;16.80;56.10
13521;DHT22;6832;51.186;3.236;2023-04-15T03:01:28;16.70;56.60
13521;DHT22;6832;51.186;3.236;2023-04-15T03:04:04;16.70;56.00
13521;DHT22;6832;51.186;3.236;2023-04-15T03:06:46;16.70;56.00
13521;DHT22;6832;51.186;3.236;2023-04-15T03:09:14;16.70;56.00
13521;DHT22;6832;51.186;3.236;2023-04-15T03:11:41;16.70;56.10
13521;DHT22;6832;51.186;3.236;2023-04-15T03:14:11;16.70;56.10
13521;DHT22;6832;51.186;3.236;2023-04-15T03:16:47;16.70;56.10
13521;DHT22;6832;51.186;3.236;2023-04-15T03:19:19;16.60;56.00
13521;DHT22;6832;51.186;3.236;2023-04-15T03:21:50;16.70;56.10
13521;DHT22;6832;51.186;3.236;2023-04-15T03:24:19;16.60;56.00
13521;DHT22;6832;51.186;3.236;2023-04-15T03:26:55;16.60;56.00
13521;DHT22;6832;51.186;3.236;2023-04-15T03:29:35;16.60;56.00
13521;DHT22;6832;51.186;3.236;2023-04-15T03:32:04;16.60;56.00
13521;DHT22;6832;51.186;3.236;2023-04-15T03:34:37;16.60;56.00
13521;DHT22;6832;51.186;3.236;2023-04-15T03:37:06;16.60;56.00
13521;DHT22;6832;51.186;3.236;2023-04-15T03:39:41;16.60;56.10
13521;DHT22;6832;51.186;3.236;2023-04-15T03:42:11;16.60;56.00
13521;DHT22;6832;51.186;3.236;2023-04-15T03:44:44;16.60;56.10
13521;DHT22;6832;51.186;3.236;2023-04-15T03:47:13;16.60;56.00
13521;DHT22;6832;51.186;3.236;2023-04-15T03:49:42;16.60;56.10
13521;DHT22;6832;51.186;3.236;2023-04-15T03:52:15;16.50;56.00
13521;DHT22;6832;51.186;3.236;2023-04-15T03:54:54;16.50;56.00
13521;DHT22;6832;51.186;3.236;2023-04-15T03:57:23;16.50;56.00
13521;DHT22;6832;51.186;3.236;2023-04-15T04:00:02;16.60;56.10
13521;DHT22;6832;51.186;3.236;2023-04-15T04:02:30;16.50;56.00
13521;DHT22;6832;51.186;3.236;2023-04-15T04:07:50;16.50;56.00
13521;DHT22;6832;51.186;3.236;2023-04-15T04:10:21;16.50;56.10
13521;DHT22;6832;51.186;3.236;2023-04-15T04:12:50;16.50;56.10
13521;DHT22;6832;51.186;3.236;2023-04-15T04:15:24;16.50;56.10
13521;DHT22;6832;51.186;3.236;2023-04-15T04:18:16;16.40;56.00
13521;DHT22;6832;51.186;3.236;2023-04-15T04:20:52;16.60;56.20
13521;DHT22;6832;51.186;3.236;2023-04-15T04:23:20;16.50;56.10
13521;DHT22;6832;51.186;3.236;2023-04-15T04:25:50;16.50;56.10
13521;DHT22;6832;51.186;3.236;2023-04-15T04:28:17;16.50;56.10
13521;DHT22;6832;51.186;3.236;2023-04-15T04:30:46;16.50;56.10
13521;DHT22;6832;51.186;3.236;2023-04-15T04:33:16;16.50;56.10
13521;DHT22;6832;51.186;3.236;2023-04-15T04:35:44;16.50;56.20
13521;DHT22;6832;51.186;3.236;2023-04-15T04:38:12;16.40;56.10
13521;DHT22;6832;51.186;3.236;2023-04-15T04:40:40;16.50;56.20
13521;DHT22;6832;51.186;3.236;2023-04-15T04:43:07;16.40;56.10
13521;DHT22;6832;51.186;3.236;2023-04-15T04:45:37;16.40;56.20
13521;DHT22;6832;51.186;3.236;2023-04-15T04:48:05;16.40;56.10
13521;DHT22;6832;51.186;3.236;2023-04-15T04:50:34;16.40;56.10
13521;DHT22;6832;51.186;3.236;2023-04-15T04:53:03;16.50;56.30
13521;DHT22;6832;51.186;3.236;2023-04-15T04:55:33;16.50;56.20
13521;DHT22;6832;51.186;3.236;2023-04-15T04:58:01;16.40;56.20
13521;DHT22;6832;51.186;3.236;2023-04-15T05:00:31;16.40;56.20
13521;DHT22;6832;51.186;3.236;2023-04-15T05:03:03;16.40;56.20
13521;DHT22;6832;51.186;3.236;2023-04-15T05:05:30;16.40;56.20
13521;DHT22;6832;51.186;3.236;2023-04-15T05:07:58;16.40;56.20
13521;DHT22;6832;51.186;3.236;2023-04-15T05:10:25;16.50;56.30
13521;DHT22;6832;51.186;3.236;2023-04-15T05:12:55;16.40;56.20
13521;DHT22;6832;51.186;3.236;2023-04-15T05:15:25;16.40;56.20
13521;DHT22;6832;51.186;3.236;2023-04-15T05:17:52;16.40;56.20
13521;DHT22;6832;51.186;3.236;2023-04-15T05:20:30;16.40;56.30
13521;DHT22;6832;51.186;3.236;2023-04-15T05:22:59;16.40;56.20
13521;DHT22;6832;51.186;3.236;2023-04-15T05:25:26;16.40;56.20
13521;DHT22;6832;51.186;3.236;2023-04-15T05:27:53;16.40;56.20
13521;DHT22;6832;51.186;3.236;2023-04-15T05:30:22;16.50;56.30
13521;DHT22;6832;51.186;3.236;2023-04-15T05:32:52;16.40;56.30
13521;DHT22;6832;51.186;3.236;2023-04-15T05:35:19;16.40;56.30
13521;DHT22;6832;51.186;3.236;2023-04-15T05:37:47;16.40;56.30
13521;DHT22;6832;51.186;3.236;2023-04-15T05:40:16;16.40;56.20
13521;DHT22;6832;51.186;3.236;2023-04-15T05:42:44;16.40;56.20
13521;DHT22;6832;51.186;3.236;2023-04-15T05:45:11;16.40;56.30
13521;DHT22;6832;51.186;3.236;2023-04-15T05:47:38;16.30;56.20
13521;DHT22;6832;51.186;3.236;2023-04-15T05:50:07;16.30;56.20
13521;DHT22;6832;51.186;3.236;2023-04-15T05:52:34;16.30;56.20
13521;DHT22;6832;51.186;3.236;2023-04-15T05:55:01;16.40;56.30
13521;DHT22;6832;51.186;3.236;2023-04-15T05:57:29;16.30;56.20
13521;DHT22;6832;51.186;3.236;2023-04-15T05:59:57;16.30;56.20
13521;DHT22;6832;51.186;3.236;2023-04-15T06:02:23;16.30;56.20
13521;DHT22;6832;51.186;3.236;2023-04-15T06:04:52;16.30;56.20
13521;DHT22;6832;51.186;3.236;2023-04-15T06:07:20;16.30;56.20
13521;DHT22;6832;51.186;3.236;2023-04-15T06:09:48;16.30;56.20
13521;DHT22;6832;51.186;3.236;2023-04-15T06:12:16;16.30;56.20
13521;DHT22;6832;51.186;3.236;2023-04-15T06:14:47;16.30;56.80
13521;DHT22;6832;51.186;3.236;2023-04-15T06:17:14;16.30;56.20
13521;DHT22;6832;51.186;3.236;2023-04-15T06:19:44;16.30;56.20
13521;DHT22;6832;51.186;3.236;2023-04-15T06:22:11;16.30;56.20
13521;DHT22;6832;51.186;3.236;2023-04-15T06:24:38;16.30;56.30
13521;DHT22;6832;51.186;3.236;2023-04-15T06:27:08;16.20;56.20
13521;DHT22;6832;51.186;3.236;2023-04-15T06:29:34;16.30;56.20
13521;DHT22;6832;51.186;3.236;2023-04-15T06:32:06;16.30;56.30
13521;DHT22;6832;51.186;3.236;2023-04-15T06:34:32;16.30;56.30
13521;DHT22;6832;51.186;3.236;2023-04-15T06:37:02;16.30;56.30
13521;DHT22;6832;51.186;3.236;2023-04-15T06:39:30;16.30;56.30
13521;DHT22;6832;51.186;3.236;2023-04-15T06:41:57;16.30;56.30
13521;DHT22;6832;51.186;3.236;2023-04-15T06:44:23;16.30;56.30
13521;DHT22;6832;51.186;3.236;2023-04-15T06:46:52;16.30;56.30
13521;DHT22;6832;51.186;3.236;2023-04-15T06:49:20;16.30;56.30
13521;DHT22;6832;51.186;3.236;2023-04-15T06:51:49;16.30;56.30
13521;DHT22;6832;51.186;3.236;2023-04-15T06:54:17;16.30;56.30
13521;DHT22;6832;51.186;3.236;2023-04-15T06:56:44;16.30;56.30
13521;DHT22;6832;51.186;3.236;2023-04-15T06:59:12;16.30;56.30
13521;DHT22;6832;51.186;3.236;2023-04-15T07:01:39;16.30;56.30
13521;DHT22;6832;51.186;3.236;2023-04-15T07:04:08;16.30;56.30
13521;DHT22;6832;51.186;3.236;2023-04-15T07:06:36;16.30;56.30
13521;DHT22;6832;51.186;3.236;2023-04-15T07:09:04;16.20;56.30
13521;DHT22;6832;51.186;3.236;2023-04-15T07:11:31;16.20;56.20
13521;DHT22;6832;51.186;3.236;2023-04-15T07:13:57;16.30;56.30
13521;DHT22;6832;51.186;3.236;2023-04-15T07:16:26;16.30;56.30
13521;DHT22;6832;51.186;3.236;2023-04-15T07:18:54;16.20;56.30
13521;DHT22;6832;51.186;3.236;2023-04-15T07:21:23;16.30;56.40
13521;DHT22;6832;51.186;3.236;2023-04-15T07:23:51;16.20;56.30
13521;DHT22;6832;51.186;3.236;2023-04-15T07:26:19;16.20;56.30
13521;DHT22;6832;51.186;3.236;2023-04-15T07:28:48;16.20;56.30
13521;DHT22;6832;51.186;3.236;2023-04-15T07:31:17;16.20;56.30
13521;DHT22;6832;51.186;3.236;2023-04-15T07:33:46;16.20;56.30
13521;DHT22;6832;51.186;3.236;2023-04-15T07:36:14;16.20;56.30
13521;DHT22;6832;51.186;3.236;2023-04-15T07:38:41;16.20;56.30
13521;DHT22;6832;51.186;3.236;2023-04-15T07:41:11;16.20;56.30
13521;DHT22;6832;51.186;3.236;2023-04-15T07:43:37;16.20;56.30
13521;DHT22;6832;51.186;3.236;2023-04-15T07:46:05;16.20;56.30
13521;DHT22;6832;51.186;3.236;2023-04-15T07:48:32;16.20;56.30
13521;DHT22;6832;51.186;3.236;2023-04-15T07:50:59;16.20;56.40
13521;DHT22;6832;51.186;3.236;2023-04-15T07:53:29;16.40;56.50
13521;DHT22;6832;51.186;3.236;2023-04-15T07:55:59;16.20;56.40
13521;DHT22;6832;51.186;3.236;2023-04-15T07:58:27;16.20;56.40
13521;DHT22;6832;51.186;3.236;2023-04-15T08:00:55;16.30;56.50
13521;DHT22;6832;51.186;3.236;2023-04-15T08:03:24;16.20;56.40
13521;DHT22;6832;51.186;3.236;2023-04-15T08:05:52;16.20;56.40
13521;DHT22;6832;51.186;3.236;2023-04-15T08:08:20;16.20;56.40
13521;DHT22;6832;51.186;3.236;2023-04-15T08:10:49;16.30;56.50
13521;DHT22;6832;51.186;3.236;2023-04-15T08:13:17;16.30;56.50
13521;DHT22;6832;51.186;3.236;2023-04-15T08:16:13;16.30;56.50
13521;DHT22;6832;51.186;3.236;2023-04-15T08:18:40;16.10;56.40
13521;DHT22;6832;51.186;3.236;2023-04-15T08:21:07;16.30;56.50
13521;DHT22;6832;51.186;3.236;2023-04-15T08:23:34;16.20;56.50
13521;DHT22;6832;51.186;3.236;2023-04-15T08:26:02;16.30;56.60
13521;DHT22;6832;51.186;3.236;2023-04-15T08:28:30;16.30;56.60
13521;DHT22;6832;51.186;3.236;2023-04-15T08:31:07;16.30;56.60
13521;DHT22;6832;51.186;3.236;2023-04-15T08:33:35;16.30;56.60
13521;DHT22;6832;51.186;3.236;2023-04-15T08:36:03;16.30;56.60
13521;DHT22;6832;51.186;3.236;2023-04-15T08:38:31;16.30;57.20
13521;DHT22;6832;51.186;3.236;2023-04-15T08:40:59;16.40;56.70
13521;DHT22;6832;51.186;3.236;2023-04-15T08:43:34;16.30;56.70
13521;DHT22;6832;51.186;3.236;2023-04-15T08:46:03;16.30;56.70
13521;DHT22;6832;51.186;3.236;2023-04-15T08:48:41;16.30;56.70
13521;DHT22;6832;51.186;3.236;2023-04-15T08:51:09;16.30;56.70
13521;DHT22;6832;51.186;3.236;2023-04-15T08:53:41;16.40;56.80
13521;DHT22;6832;51.186;3.236;2023-04-15T08:56:08;16.40;56.80
13521;DHT22;6832;51.186;3.236;2023-04-15T08:58:40;16.40;56.80
13521;DHT22;6832;51.186;3.236;2023-04-15T09:01:07;16.40;56.80
13521;DHT22;6832;51.186;3.236;2023-04-15T09:03:38;16.40;56.80
13521;DHT22;6832;51.186;3.236;2023-04-15T09:06:08;16.40;56.80
13521;DHT22;6832;51.186;3.236;2023-04-15T09:08:35;16.40;56.80
13521;DHT22;6832;51.186;3.236;2023-04-15T09:11:04;16.50;56.90
13521;DHT22;6832;51.186;3.236;2023-04-15T09:13:34;16.50;57.00
13521;DHT22;6832;51.186;3.236;2023-04-15T09:16:02;16.50;56.90
13521;DHT22;6832;51.186;3.236;2023-04-15T09:18:34;16.50;56.90
13521;DHT22;6832;51.186;3.236;2023-04-15T09:21:20;16.50;57.00
13521;DHT22;6832;51.186;3.236;2023-04-15T09:23:59;16.50;56.90
13521;DHT22;6832;51.186;3.236;2023-04-15T09:26:31;16.60;57.10
13521;DHT22;6832;51.186;3.236;2023-04-15T09:29:09;16.50;57.00
13521;DHT22;6832;51.186;3.236;2023-04-15T09:31:38;16.60;57.10
13521;DHT22;6832;51.186;3.236;2023-04-15T09:34:10;16.60;57.00
13521;DHT22;6832;51.186;3.236;2023-04-15T09:36:57;16.60;57.10
13521;DHT22;6832;51.186;3.236;2023-04-15T09:39:26;16.60;57.20
13521;DHT22;6832;51.186;3.236;2023-04-15T09:42:11;16.60;57.10
13521;DHT22;6832;51.186;3.236;2023-04-15T09:44:38;16.60;57.20
13521;DHT22;6832;51.186;3.236;2023-04-15T09:47:23;16.60;57.10
13521;DHT22;6832;51.186;3.236;2023-04-15T09:49:54;16.70;57.20
13521;DHT22;6832;51.186;3.236;2023-04-15T09:52:26;16.70;57.20
13521;DHT22;6832;51.186;3.236;2023-04-15T09:54:54;16.70;57.20
13521;DHT22;6832;51.186;3.236;2023-04-15T09:57:34;16.70;57.20
13521;DHT22;6832;51.186;3.236;2023-04-15T10:00:02;16.70;57.30
13521;DHT22;6832;51.186;3.236;2023-04-15T10:02:32;16.70;57.20
13521;DHT22;6832;51.186;3.236;2023-04-15T10:05:01;16.80;57.30
13521;DHT22;6832;51.186;3.236;2023-04-15T10:07:30;16.80;57.30
13521;DHT22;6832;51.186;3.236;2023-04-15T10:09:59;16.70;57.20
13521;DHT22;6832;51.186;3.236;2023-04-15T10:12:27;16.80;57.30
13521;DHT22;6832;51.186;3.236;2023-04-15T10:14:58;16.80;57.30
13521;DHT22;6832;51.186;3.236;2023-04-15T10:17:27;16.90;57.40
13521;DHT22;6832;51.186;3.236;2023-04-15T10:19:56;16.90;57.40
13521;DHT22;6832;51.186;3.236;2023-04-15T10:22:23;16.90;57.40
13521;DHT22;6832;51.186;3.236;2023-04-15T10:24:55;16.90;57.40
13521;DHT22;6832;51.186;3.236;2023-04-15T10:27:22;16.90;57.40
13521;DHT22;6832;51.186;3.236;2023-04-15T10:29:49;17.00;57.50
13521;DHT22;6832;51.186;3.236;2023-04-15T10:32:18;17.00;57.50
13521;DHT22;6832;51.186;3.236;2023-04-15T10:34:47;17.00;57.50
13521;DHT22;6832;51.186;3.236;2023-04-15T10:37:19;17.00;57.60
13521;DHT22;6832;51.186;3.236;2023-04-15T10:39:46;17.00;57.60
13521;DHT22;6832;51.186;3.236;2023-04-15T10:42:22;17.00;57.60
13521;DHT22;6832;51.186;3.236;2023-04-15T10:44:51;17.10;57.60
13521;DHT22;6832;51.186;3.236;2023-04-15T10:47:22;17.10;57.60
13521;DHT22;6832;51.186;3.236;2023-04-15T10:49:51;17.10;57.60
13521;DHT22;6832;51.186;3.236;2023-04-15T10:52:23;17.20;57.80
13521;DHT22;6832;51.186;3.236;2023-04-15T10:55:01;17.20;57.70
13521;DHT22;6832;51.186;3.236;2023-04-15T10:57:41;17.20;57.80
13521;DHT22;6832;51.186;3.236;2023-04-15T11:00:11;17.30;57.80
13521;DHT22;6832;51.186;3.236;2023-04-15T11:02:41;17.30;57.80
13521;DHT22;6832;51.186;3.236;2023-04-15T11:05:11;17.30;57.80
13521;DHT22;6832;51.186;3.236;2023-04-15T11:07:40;17.30;57.80
13521;DHT22;6832;51.186;3.236;2023-04-15T11:13:20;17.50;58.00
13521;DHT22;6832;51.186;3.236;2023-04-15T11:15:48;17.50;58.00
13521;DHT22;6832;51.186;3.236;2023-04-15T11:18:18;17.40;57.90
13521;DHT22;6832;51.186;3.236;2023-04-15T11:20:48;17.50;58.00
13521;DHT22;6832;51.186;3.236;2023-04-15T11:23:17;17.60;58.00
13521;DHT22;6832;51.186;3.236;2023-04-15T11:25:48;17.60;58.00
13521;DHT22;6832;51.186;3.236;2023-04-15T11:28:20;17.60;58.10
13521;DHT22;6832;51.186;3.236;2023-04-15T11:30:51;17.70;58.20
13521;DHT22;6832;51.186;3.236;2023-04-15T11:33:21;17.70;58.20
13521;DHT22;6832;51.186;3.236;2023-04-15T11:35:48;17.70;58.10
13521;DHT22;6832;51.186;3.236;2023-04-15T11:38:15;17.70;58.10
13521;DHT22;6832;51.186;3.236;2023-04-15T11:40:44;17.80;58.20
13521;DHT22;6832;51.186;3.236;2023-04-15T11:43:20;17.90;58.20
13521;DHT22;6832;51.186;3.236;2023-04-15T11:45:49;17.90;58.30
13521;DHT22;6832;51.186;3.236;2023-04-15T11:48:17;17.90;58.30
13521;DHT22;6832;51.186;3.236;2023-04-15T11:50:45;17.90;58.30
13521;DHT22;6832;51.186;3.236;2023-04-15T11:53:12;18.00;58.40
13521;DHT22;6832;51.186;3.236;2023-04-15T11:55:45;18.00;58.40
13521;DHT22;6832;51.186;3.236;2023-04-15T11:58:21;18.10;58.50
13521;DHT22;6832;51.186;3.236;2023-04-15T12:00:50;18.20;58.60
13521;DHT22;6832;51.186;3.236;2023-04-15T12:03:22;18.20;58.50
13521;DHT22;6832;51.186;3.236;2023-04-15T12:06:13;18.20;58.50
13521;DHT22;6832;51.186;3.236;2023-04-15T12:09:07;18.30;58.60
13521;DHT22;6832;51.186;3.236;2023-04-15T12:11:44;18.30;58.60
13521;DHT22;6832;51.186;3.236;2023-04-15T12:14:23;18.40;58.70
13521;DHT22;6832;51.186;3.236;2023-04-15T12:16:56;18.50;58.80
13521;DHT22;6832;51.186;3.236;2023-04-15T12:19:28;18.50;58.70
13521;DHT22;6832;51.186;3.236;2023-04-15T12:21:58;18.50;58.60
13521;DHT22;6832;51.186;3.236;2023-04-15T12:24:35;18.60;58.70
13521;DHT22;6832;51.186;3.236;2023-04-15T12:27:03;18.60;58.60
13521;DHT22;6832;51.186;3.236;2023-04-15T12:29:40;18.60;58.60
13521;DHT22;6832;51.186;3.236;2023-04-15T12:32:11;18.70;59.20
13521;DHT22;6832;51.186;3.236;2023-04-15T12:34:40;18.70;58.60
13521;DHT22;6832;51.186;3.236;2023-04-15T12:37:17;18.80;58.60
13521;DHT22;6832;51.186;3.236;2023-04-15T12:39:47;18.80;58.70
13521;DHT22;6832;51.186;3.236;2023-04-15T12:42:16;18.80;58.60
13521;DHT22;6832;51.186;3.236;2023-04-15T12:44:46;18.90;58.60
13521;DHT22;6832;51.186;3.236;2023-04-15T12:47:13;18.90;58.60
13521;DHT22;6832;51.186;3.236;2023-04-15T12:49:42;18.90;58.60
13521;DHT22;6832;51.186;3.236;2023-04-15T12:52:09;18.90;58.50
13521;DHT22;6832;51.186;3.236;2023-04-15T12:54:36;19.00;58.60
13521;DHT22;6832;51.186;3.236;2023-04-15T12:57:03;19.00;58.50
13521;DHT22;6832;51.186;3.236;2023-04-15T12:59:30;19.00;58.50
13521;DHT22;6832;51.186;3.236;2023-04-15T13:01:59;19.00;58.50
13521;DHT22;6832;51.186;3.236;2023-04-15T13:04:27;19.10;58.60
13521;DHT22;6832;51.186;3.236;2023-04-15T13:06:55;19.10;58.50
13521;DHT22;6832;51.186;3.236;2023-04-15T13:09:24;19.10;58.50
13521;DHT22;6832;51.186;3.236;2023-04-15T13:11:51;19.10;58.50
13521;DHT22;6832;51.186;3.236;2023-04-15T13:14:18;19.10;58.40
13521;DHT22;6832;51.186;3.236;2023-04-15T13:16:46;19.20;58.50
13521;DHT22;6832;51.186;3.236;2023-04-15T13:19:15;19.20;58.50
13521;DHT22;6832;51.186;3.236;2023-04-15T13:21:42;19.20;58.50
13521;DHT22;6832;51.186;3.236;2023-04-15T13:24:09;19.30;58.60
13521;DHT22;6832;51.186;3.236;2023-04-15T13:26:42;19.30;58.50
13521;DHT22;6832;51.186;3.236;2023-04-15T13:29:09;19.30;58.50
13521;DHT22;6832;51.186;3.236;2023-04-15T13:31:36;19.30;58.40
13521;DHT22;6832;51.186;3.236;2023-04-15T13:34:03;19.30;58.50
13521;DHT22;6832;51.186;3.236;2023-04-15T13:36:33;19.30;58.40
13521;DHT22;6832;51.186;3.236;2023-04-15T13:39:00;19.30;58.40
13521;DHT22;6832;51.186;3.236;2023-04-15T13:41:28;19.40;58.50
13521;DHT22;6832;51.186;3.236;2023-04-15T13:43:55;19.40;58.50
13521;DHT22;6832;51.186;3.236;2023-04-15T13:46:22;19.40;58.50
13521;DHT22;6832;51.186;3.236;2023-04-15T13:48:50;19.40;58.40
13521;DHT22;6832;51.186;3.236;2023-04-15T13:51:17;19.50;58.50
13521;DHT22;6832;51.186;3.236;2023-04-15T13:53:45;19.50;58.40
13521;DHT22;6832;51.186;3.236;2023-04-15T13:56:12;19.50;58.40
13521;DHT22;6832;51.186;3.236;2023-04-15T13:58:40;19.50;58.40
13521;DHT22;6832;51.186;3.236;2023-04-15T14:01:07;19.50;58.40
13521;DHT22;6832;51.186;3.236;2023-04-15T14:03:36;19.50;58.30
13521;DHT22;6832;51.186;3.236;2023-04-15T14:06:03;19.60;58.40
13521;DHT22;6832;51.186;3.236;2023-04-15T14:08:30;19.60;58.40
13521;DHT22;6832;51.186;3.236;2023-04-15T14:10:59;19.60;58.40
13521;DHT22;6832;51.186;3.236;2023-04-15T14:13:27;19.60;58.40
13521;DHT22;6832;51.186;3.236;2023-04-15T14:15:56;19.60;59.00
13521;DHT22;6832;51.186;3.236;2023-04-15T14:18:23;19.50;58.30
13521;DHT22;6832;51.186;3.236;2023-04-15T14:20:50;19.60;58.30
13521;DHT22;6832;51.186;3.236;2023-04-15T14:23:17;19.60;58.30
13521;DHT22;6832;51.186;3.236;2023-04-15T14:25:45;19.60;58.30
13521;DHT22;6832;51.186;3.236;2023-04-15T14:28:16;19.70;58.30
13521;DHT22;6832;51.186;3.236;2023-04-15T14:30:44;19.70;58.30
13521;DHT22;6832;51.186;3.236;2023-04-15T14:33:12;19.70;58.30
13521;DHT22;6832;51.186;3.236;2023-04-15T14:35:39;19.70;58.30
13521;DHT22;6832;51.186;3.236;2023-04-15T14:38:06;19.70;58.30
13521;DHT22;6832;51.186;3.236;2023-04-15T14:40:35;19.70;58.30
13521;DHT22;6832;51.186;3.236;2023-04-15T14:43:08;19.70;58.30
13521;DHT22;6832;51.186;3.236;2023-04-15T14:45:37;19.80;58.40
13521;DHT22;6832;51.186;3.236;2023-04-15T14:48:05;19.70;58.30
13521;DHT22;6832;51.186;3.236;2023-04-15T14:50:34;19.70;58.30
13521;DHT22;6832;51.186;3.236;2023-04-15T14:53:02;19.80;58.40
13521;DHT22;6832;51.186;3.236;2023-04-15T14:55:34;19.80;58.40
13521;DHT22;6832;51.186;3.236;2023-04-15T14:58:02;19.80;58.40
13521;DHT22;6832;51.186;3.236;2023-04-15T15:00:29;19.80;58.40
13521;DHT22;6832;51.186;3.236;2023-04-15T15:02:58;19.80;58.40
13521;DHT22;6832;51.186;3.236;2023-04-15T15:05:25;19.80;58.40
13521;DHT22;6832;51.186;3.236;2023-04-15T15:07:52;19.80;58.40
13521;DHT22;6832;51.186;3.236;2023-04-15T15:10:21;19.80;58.40
13521;DHT22;6832;51.186;3.236;2023-04-15T15:12:48;19.80;58.60
13521;DHT22;6832;51.186;3.236;2023-04-15T15:15:15;19.80;58.40
13521;DHT22;6832;51.186;3.236;2023-04-15T15:17:42;19.90;58.50
13521;DHT22;6832;51.186;3.236;2023-04-15T15:20:11;19.80;58.30
13521;DHT22;6832;51.186;3.236;2023-04-15T15:22:37;19.90;58.40
13521;DHT22;6832;51.186;3.236;2023-04-15T15:25:05;19.90;58.40
13521;DHT22;6832;51.186;3.236;2023-04-15T15:27:32;19.90;58.30
13521;DHT22;6832;51.186;3.236;2023-04-15T15:29:59;20.00;59.00
13521;DHT22;6832;51.186;3.236;2023-04-15T15:32:26;19.90;58.30
13521;DHT22;6832;51.186;3.236;2023-04-15T15:34:53;19.90;58.30
13521;DHT22;6832;51.186;3.236;2023-04-15T15:37:21;19.90;58.30
13521;DHT22;6832;51.186;3.236;2023-04-15T15:39:48;19.90;58.30
13521;DHT22;6832;51.186;3.236;2023-04-15T15:42:18;19.90;58.30
13521;DHT22;6832;51.186;3.236;2023-04-15T15:44:45;19.90;58.30
13521;DHT22;6832;51.186;3.236;2023-04-15T15:47:14;19.90;58.30
13521;DHT22;6832;51.186;3.236;2023-04-15T15:49:41;19.90;58.30
13521;DHT22;6832;51.186;3.236;2023-04-15T15:52:10;19.90;58.20
13521;DHT22;6832;51.186;3.236;2023-04-15T15:54:38;19.90;58.20
13521;DHT22;6832;51.186;3.236;2023-04-15T15:57:06;19.90;58.20
13521;DHT22;6832;51.186;3.236;2023-04-15T15:59:41;19.90;58.20
13521;DHT22;6832;51.186;3.236;2023-04-15T16:02:09;19.90;58.10
13521;DHT22;6832;51.186;3.236;2023-04-15T16:04:36;19.90;58.10
13521;DHT22;6832;51.186;3.236;2023-04-15T16:07:04;19.90;58.10
13521;DHT22;6832;51.186;3.236;2023-04-15T16:09:32;19.90;58.10